Terminal Aerodrome Forecast
Issued by NWS Twin Cities, MN

Home | Current Version | Previous Version | Graphics & Text | Print | Product List | Glossary On
Versions: 1 2 3 4 5 6 7 8 9 10 11 12 13 14 15 16 17 18 19 20 21 22 23 24 25 26 27 28
000
FTUS43 KMPX 191251 AAA
TAFMSP
TAF AMD
KMSP 191251Z 1913/2018 21004KT 5SM BR FEW003
     FM191400 21004KT 6SM BR SKC
     FM191500 21007KT P6SM FEW040
     FM200100 18004KT P6SM SCT250
     FM201000 17004KT P6SM SCT090 BKN250=

USA.gov is the U.S. government's official web portal to all federal, state and local government web resources and services.